Time;durP1;ratioP1;P1;durP2;ratioP2;P2;SDS_P1;SDS_P2;PMS_P1;PMS_P2;Temp;Humidity;BMP_temperature;BMP_pressure;BME280_temperature;BME280_humidity;BME280_pressure;Samples;Min_cycle;Max_cycle;Signal;HPM_P1;HPM_P2
2021/09/05 00:02:28;;;;;;;4.47;2.80;;;;;;;17.44;66.88;99089.22;5143659;27;38859;-83
2021/09/05 00:04:56;;;;;;;3.73;2.73;;;;;;;17.30;67.68;99082.41;5142709;27;41719;-80
2021/09/05 00:07:23;;;;;;;7.43;3.80;;;;;;;17.26;68.52;99078.28;5151396;27;41977;-81
2021/09/05 00:09:51;;;;;;;5.43;3.00;;;;;;;17.21;68.14;99076.00;5137551;27;41400;-81
2021/09/05 00:12:18;;;;;;;5.77;3.40;;;;;;;17.30;68.42;99093.13;5165442;27;39375;-81
2021/09/05 00:14:46;;;;;;;6.03;3.80;;;;;;;17.24;68.56;99090.94;5163413;27;41667;-83
2021/09/05 00:17:13;;;;;;;9.23;3.70;;;;;;;17.13;68.57;99078.50;5157028;27;43814;-83
2021/09/05 00:19:42;;;;;;;5.07;3.20;;;;;;;17.17;68.96;99084.44;5168654;27;41519;-83
2021/09/05 00:22:10;;;;;;;7.30;4.67;;;;;;;17.23;68.76;99094.59;5132913;27;39901;-81
2021/09/05 00:24:39;;;;;;;6.40;3.90;;;;;;;17.10;68.79;99073.41;5161670;27;41018;-81
2021/09/05 00:27:06;;;;;;;4.57;3.13;;;;;;;17.06;68.73;99073.81;5139753;27;42661;-82
2021/09/05 00:29:34;;;;;;;6.27;3.70;;;;;;;17.16;69.14;99088.09;5147849;27;41784;-82
2021/09/05 00:32:01;;;;;;;4.77;2.57;;;;;;;17.12;68.73;99092.00;5150238;27;38671;-81
2021/09/05 00:34:29;;;;;;;4.93;2.97;;;;;;;17.01;69.49;99068.84;5142935;27;41558;-82
2021/09/05 00:36:59;;;;;;;5.00;3.30;;;;;;;17.06;68.97;99090.69;5159628;27;43138;-83
2021/09/05 00:39:27;;;;;;;6.80;3.63;;;;;;;17.04;68.68;99089.16;5167850;27;41487;-81
2021/09/05 00:41:55;;;;;;;6.53;3.53;;;;;;;17.01;68.29;99086.72;5150277;27;40244;-82
2021/09/05 00:44:23;;;;;;;6.30;3.23;;;;;;;16.74;68.25;99050.63;5141757;27;41318;-83
2021/09/05 00:46:50;;;;;;;5.73;3.90;;;;;;;16.72;68.29;99051.75;5158936;27;43037;-83
2021/09/05 00:49:18;;;;;;;5.17;3.00;;;;;;;16.79;67.83;99066.31;5166845;27;42405;-83
2021/09/05 00:51:46;;;;;;;4.77;3.47;;;;;;;16.86;68.11;99083.53;5136735;27;38633;-84
2021/09/05 00:54:20;;;;;;;6.30;3.67;;;;;;;16.85;68.19;99082.66;5147256;27;40447;-81
2021/09/05 00:56:48;;;;;;;4.80;2.77;;;;;;;16.72;68.21;99073.13;5145446;27;41977;-83
2021/09/05 00:59:25;;;;;;;4.17;2.83;;;;;;;16.79;68.35;99091.22;5137425;27;42386;-82
2021/09/05 01:01:53;;;;;;;5.80;3.20;;;;;;;16.69;68.32;99079.59;5116801;27;40738;-80
2021/09/05 01:04:21;;;;;;;6.47;3.37;;;;;;;16.74;68.72;99093.44;5132592;27;40746;-83
2021/09/05 01:06:52;;;;;;;6.47;3.47;;;;;;;16.73;68.61;99096.22;5163075;27;42926;-81
2021/09/05 01:09:23;;;;;;;5.63;4.00;;;;;;;16.68;69.21;99099.31;5137366;27;42030;-84
2021/09/05 01:11:52;;;;;;;7.47;3.87;;;;;;;16.54;69.25;99070.16;5137355;27;39379;-84
2021/09/05 01:14:20;;;;;;;5.27;3.63;;;;;;;16.63;69.17;99096.16;5146467;27;40973;-83
2021/09/05 01:16:49;;;;;;;6.97;3.57;;;;;;;16.54;69.28;99088.88;5144604;27;42669;-81
2021/09/05 01:19:36;;;;;;;7.17;3.87;;;;;;;16.45;69.24;99086.94;5153979;27;40845;-83
2021/09/05 01:22:13;;;;;;;5.53;3.60;;;;;;;16.31;69.86;99063.22;5164553;27;39274;-86
2021/09/05 01:25:06;;;;;;;4.30;3.00;;;;;;;16.44;69.57;99102.13;5120198;27;41879;-82
2021/09/05 01:28:01;;;;;;;6.27;3.50;;;;;;;16.39;69.41;99104.34;5134242;27;42848;-85
2021/09/05 01:30:47;;;;;;;8.40;4.80;;;;;;;16.35;69.70;99102.06;5161472;27;41470;-80
2021/09/05 01:33:33;;;;;;;5.17;3.10;;;;;;;16.31;69.54;99111.31;5154142;27;39313;-84
2021/09/05 01:36:12;;;;;;;5.30;3.50;;;;;;;16.15;69.31;99090.34;5165666;27;42106;-80
2021/09/05 01:38:46;;;;;;;5.93;3.33;;;;;;;16.23;69.57;99105.72;5150000;27;42234;-83
2021/09/05 01:41:33;;;;;;;5.20;3.27;;;;;;;16.09;69.52;99097.00;5167313;27;41436;-81
2021/09/05 01:44:22;;;;;;;4.97;2.80;;;;;;;16.16;69.67;99108.91;5150014;27;39564;-81
2021/09/05 01:47:08;;;;;;;7.03;3.70;;;;;;;16.07;69.62;99104.28;5147398;27;40686;-80
2021/09/05 01:49:54;;;;;;;3.97;2.80;;;;;;;15.99;70.21;99101.41;5133569;27;41617;-84
2021/09/05 01:52:54;;;;;;;5.47;3.30;;;;;;;16.05;69.64;99114.28;5149514;27;41330;-85
2021/09/05 01:55:41;;;;;;;6.47;3.10;;;;;;;16.03;69.44;99112.72;5165657;27;40166;-81
2021/09/05 01:58:32;;;;;;;4.47;2.90;;;;;;;15.96;69.04;99112.34;5120565;27;41719;-80
2021/09/05 02:01:31;;;;;;;5.03;2.37;;;;;;;15.87;69.14;99099.72;5110842;27;42934;-82
2021/09/05 02:04:25;;;;;;;6.37;3.37;;;;;;;15.90;68.98;99106.66;5149368;27;41482;-83
2021/09/05 02:07:13;;;;;;;3.57;2.60;;;;;;;15.93;69.01;99117.09;5118967;27;40604;-84
2021/09/05 02:10:08;;;;;;;5.37;3.10;;;;;;;15.90;68.78;99120.00;5124447;27;41999;-82
2021/09/05 02:12:55;;;;;;;4.10;2.47;;;;;;;15.87;68.90;99123.75;5156438;27;41913;-83
2021/09/05 02:15:43;;;;;;;5.30;3.13;;;;;;;15.67;68.97;99089.81;5166796;27;41442;-83
2021/09/05 02:18:38;;;;;;;5.30;3.20;;;;;;;15.89;69.09;99126.31;5146109;27;38984;-84
2021/09/05 02:21:28;;;;;;;5.63;3.07;;;;;;;15.84;68.98;99118.66;5120667;27;40647;-84
2021/09/05 02:24:12;;;;;;;6.17;3.47;;;;;;;15.88;69.07;99129.94;5145914;27;41846;-81
2021/09/05 02:27:03;;;;;;;7.10;3.63;;;;;;;15.94;69.05;99135.69;5163281;27;42415;-81
2021/09/05 02:29:46;;;;;;;6.33;3.50;;;;;;;15.93;70.02;99120.63;5153125;27;38991;-80
2021/09/05 02:32:32;;;;;;;7.47;4.23;;;;;;;16.09;70.77;99134.41;5143635;27;40630;-81
2021/09/05 02:35:26;;;;;;;7.13;3.97;;;;;;;16.17;70.71;99137.34;5166348;27;43793;-84
2021/09/05 02:38:19;;;;;;;8.17;4.10;;;;;;;16.13;71.25;99119.84;5135148;27;41193;-80
2021/09/05 02:41:07;;;;;;;8.77;4.40;;;;;;;16.16;71.07;99124.94;5134216;27;39249;-82
2021/09/05 02:43:56;;;;;;;7.53;4.03;;;;;;;16.29;71.23;99140.00;5132301;27;40623;-85
2021/09/05 02:46:58;;;;;;;8.73;4.30;;;;;;;16.21;71.74;99126.38;5163322;27;42642;-82
2021/09/05 02:49:44;;;;;;;7.07;3.87;;;;;;;16.28;72.15;99135.63;5152417;27;42152;-83
2021/09/05 02:52:40;;;;;;;6.90;4.00;;;;;;;16.26;71.43;99141.09;5157489;27;39366;-84
2021/09/05 02:55:32;;;;;;;8.23;4.43;;;;;;;16.22;71.52;99133.44;5166048;27;40911;-83
2021/09/05 02:58:19;;;;;;;7.03;4.00;;;;;;;16.19;71.60;99142.56;5131585;27;41804;-83
2021/09/05 03:01:06;;;;;;;7.37;4.30;;;;;;;16.06;71.06;99128.50;5161181;27;42685;-79
2021/09/05 03:04:08;;;;;;;6.90;3.67;;;;;;;16.07;70.76;99139.03;5152892;27;40248;-80
2021/09/05 03:07:05;;;;;;;4.90;3.30;;;;;;;16.03;70.89;99134.94;5108002;27;40638;-82
2021/09/05 03:09:54;;;;;;;8.50;3.83;;;;;;;15.96;70.89;99128.38;5131932;27;43510;-80
2021/09/05 03:12:48;;;;;;;5.30;3.57;;;;;;;15.84;70.89;99123.16;5160212;27;43122;-80
2021/09/05 03:15:33;;;;;;;4.13;3.10;;;;;;;15.80;70.85;99119.91;5155774;27;39960;-84
2021/09/05 03:18:24;;;;;;;5.83;3.70;;;;;;;15.81;71.01;99132.28;5162815;27;41099;-83
2021/09/05 03:21:20;;;;;;;5.37;3.20;;;;;;;15.75;71.06;99127.41;5112367;27;42726;-83
2021/09/05 03:24:07;;;;;;;7.03;3.63;;;;;;;15.74;71.14;99131.06;5143021;27;41543;-80
2021/09/05 03:26:56;;;;;;;8.00;4.23;;;;;;;15.39;71.41;99089.28;5160361;27;39194;-81
2021/09/05 03:30:02;;;;;;;5.70;3.70;;;;;;;15.54;70.78;99121.06;5146268;27;42445;-81
2021/09/05 03:32:47;;;;;;;6.23;3.63;;;;;;;15.64;70.75;99149.63;5144926;27;43783;-84
2021/09/05 03:35:33;;;;;;;4.43;2.70;;;;;;;15.53;70.50;99138.91;5169501;27;41583;-81
2021/09/05 03:38:26;;;;;;;4.30;3.50;;;;;;;15.55;70.74;99149.50;5151339;27;39887;-80
2021/09/05 03:41:13;;;;;;;5.80;3.30;;;;;;;15.49;70.74;99157.94;5167671;27;42028;-81
2021/09/05 03:44:02;;;;;;;7.33;3.80;;;;;;;15.41;70.66;99154.06;5140967;27;43825;-83
2021/09/05 03:46:49;;;;;;;7.13;4.07;;;;;;;15.38;71.04;99159.63;5160960;27;43729;-83
2021/09/05 03:49:36;;;;;;;4.50;2.80;;;;;;;15.31;70.96;99158.41;5169048;27;40123;-81
2021/09/05 03:52:08;;;;;;;5.87;3.97;;;;;;;15.26;71.03;99149.91;5133738;27;42001;-82
2021/09/05 03:54:39;;;;;;;3.97;3.13;;;;;;;15.25;71.06;99158.88;5144140;27;41718;-82
2021/09/05 03:57:07;;;;;;;5.43;4.07;;;;;;;15.23;71.12;99155.47;5140510;27;41357;-82
2021/09/05 03:59:38;;;;;;;6.07;3.57;;;;;;;15.13;70.75;99141.13;5169039;27;39882;-82
2021/09/05 04:02:10;;;;;;;4.93;3.20;;;;;;;15.20;70.74;99149.53;5134278;27;40930;-82
2021/09/05 04:04:38;;;;;;;6.97;3.07;;;;;;;15.16;70.83;99142.72;5144615;27;41738;-81
2021/09/05 04:07:10;;;;;;;9.30;5.03;;;;;;;15.07;71.56;99128.28;5166829;27;42400;-80
2021/09/05 04:12:23;;;;;;;8.13;3.43;;;;;;;15.14;71.52;99150.84;5167705;27;40255;-79
2021/09/05 04:14:52;;;;;;;4.93;3.50;;;;;;;15.05;71.59;99135.56;5185052;27;43902;-80
2021/09/05 04:17:20;;;;;;;7.73;4.47;;;;;;;15.12;71.39;99144.78;5158861;27;42574;-80
2021/09/05 04:19:47;;;;;;;7.90;4.27;;;;;;;15.07;72.42;99142.47;5190747;27;40453;-79
2021/09/05 04:22:27;;;;;;;8.53;4.50;;;;;;;15.07;72.42;99146.97;5164145;27;40777;-81
2021/09/05 04:24:55;;;;;;;6.00;3.90;;;;;;;15.07;72.61;99149.63;5148396;27;41763;-80
2021/09/05 04:27:22;;;;;;;7.80;3.93;;;;;;;15.01;72.39;99140.25;5140698;27;42068;-82
2021/09/05 04:29:49;;;;;;;5.57;3.17;;;;;;;15.01;72.27;99155.41;5139453;27;39078;-79
2021/09/05 04:32:20;;;;;;;7.67;4.47;;;;;;;14.98;72.05;99153.81;5168781;27;41980;-81
2021/09/05 04:34:48;;;;;;;5.13;3.33;;;;;;;14.96;71.71;99158.41;5165109;27;42676;-84
2021/09/05 04:37:16;;;;;;;5.70;2.90;;;;;;;14.93;71.73;99165.81;5155389;27;42515;-80
2021/09/05 04:39:43;;;;;;;5.80;3.13;;;;;;;14.77;71.42;99143.94;5150800;27;38903;-80
2021/09/05 04:42:11;;;;;;;4.23;2.40;;;;;;;14.85;71.15;99176.19;5150797;27;40683;-81
2021/09/05 04:44:40;;;;;;;7.80;4.47;;;;;;;14.69;71.28;99153.38;5161866;27;42972;-79
2021/09/05 04:47:07;;;;;;;6.57;3.83;;;;;;;14.79;70.74;99177.50;5140298;27;41004;-81
2021/09/05 04:49:36;;;;;;;5.60;3.50;;;;;;;14.70;70.56;99167.53;5150705;27;38890;-80
2021/09/05 04:52:06;;;;;;;4.70;3.10;;;;;;;14.74;70.97;99177.84;5133077;27;40775;-81
2021/09/05 04:54:35;;;;;;;5.07;3.00;;;;;;;14.72;70.84;99187.78;5143667;27;43073;-82
2021/09/05 04:57:03;;;;;;;7.30;3.73;;;;;;;14.71;70.49;99191.41;5157400;27;41578;-81
2021/09/05 04:59:31;;;;;;;4.83;3.47;;;;;;;14.69;70.79;99204.00;5168915;27;39823;-83
2021/09/05 05:01:59;;;;;;;5.23;3.33;;;;;;;14.69;70.89;99187.16;5132895;27;40826;-83
2021/09/05 05:04:26;;;;;;;6.90;4.17;;;;;;;14.68;71.22;99202.31;5141773;27;41753;-82
2021/09/05 05:06:55;;;;;;;6.60;3.27;;;;;;;14.69;71.44;99204.00;5140761;27;41700;-82
2021/09/05 05:09:23;;;;;;;6.30;3.33;;;;;;;14.61;71.73;99193.03;5150462;27;39766;-84
2021/09/05 05:11:50;;;;;;;5.30;3.57;;;;;;;14.64;71.68;99195.50;5155095;27;41929;-80
2021/09/05 05:14:18;;;;;;;5.53;3.73;;;;;;;14.77;71.46;99215.91;5147129;27;42242;-80
2021/09/05 05:16:45;;;;;;;6.33;3.60;;;;;;;14.79;71.13;99219.31;5144683;27;41009;-80
2021/09/05 05:19:13;;;;;;;5.70;3.23;;;;;;;14.84;71.23;99217.16;5157427;27;40111;-82
2021/09/05 05:21:41;;;;;;;5.97;4.07;;;;;;;14.86;71.21;99217.88;5150853;27;40780;-82
2021/09/05 05:24:10;;;;;;;7.13;3.67;;;;;;;14.89;71.29;99217.66;5150332;27;42895;-83
2021/09/05 05:26:38;;;;;;;9.00;4.07;;;;;;;14.91;71.23;99223.75;5143576;27;42723;-80
2021/09/05 05:29:06;;;;;;;4.37;2.37;;;;;;;14.93;70.98;99228.00;5140149;27;39025;-81
2021/09/05 05:31:33;;;;;;;6.27;3.40;;;;;;;14.87;70.86;99215.13;5149810;27;41017;-81
2021/09/05 05:34:02;;;;;;;4.20;3.10;;;;;;;15.01;70.71;99224.75;5157145;27;43153;-80
2021/09/05 05:36:29;;;;;;;7.50;3.77;;;;;;;15.03;70.41;99222.84;5143658;27;41455;-80
2021/09/05 05:38:57;;;;;;;6.07;3.57;;;;;;;15.07;70.54;99221.66;5132420;27;38760;-79
2021/09/05 05:41:26;;;;;;;4.53;2.53;;;;;;;15.23;70.46;99235.50;5132347;27;42208;-83
2021/09/05 05:43:54;;;;;;;5.87;3.83;;;;;;;15.34;70.55;99243.56;5116403;27;41920;-79
2021/09/05 05:46:21;;;;;;;5.00;3.20;;;;;;;15.44;70.01;99244.59;5132359;27;41533;-79
2021/09/05 05:48:49;;;;;;;7.17;3.80;;;;;;;15.61;69.89;99242.44;5144485;27;39027;-81
2021/09/05 05:51:17;;;;;;;5.30;3.23;;;;;;;15.72;69.86;99243.31;5148766;27;41770;-81
2021/09/05 05:53:44;;;;;;;6.07;3.53;;;;;;;15.76;69.35;99233.25;5152819;27;42853;-81
2021/09/05 05:56:12;;;;;;;8.13;4.10;;;;;;;15.83;70.06;99223.78;5147138;27;41272;-82
2021/09/05 05:58:41;;;;;;;5.77;3.57;;;;;;;15.86;70.36;99212.88;5143072;27;39080;-83
2021/09/05 06:01:08;;;;;;;9.77;4.10;;;;;;;16.13;70.58;99239.25;5164644;27;41219;-80
2021/09/05 06:03:37;;;;;;;7.97;4.70;;;;;;;16.15;70.36;99224.78;5153021;27;41693;-81
2021/09/05 06:06:04;;;;;;;7.57;4.93;;;;;;;16.36;69.89;99221.38;5143776;27;42080;-80
2021/09/05 06:08:33;;;;;;;9.23;4.10;;;;;;;16.67;69.58;99250.03;5161689;27;40126;-82
2021/09/05 06:11:00;;;;;;;8.40;3.90;;;;;;;16.84;68.88;99236.13;5145553;27;41965;-82
2021/09/05 06:13:28;;;;;;;9.90;5.53;;;;;;;16.96;68.80;99241.44;5134708;27;43019;-79
2021/09/05 06:15:57;;;;;;;9.00;4.13;;;;;;;17.09;68.66;99242.13;5167566;27;42425;-82
2021/09/05 06:18:25;;;;;;;9.23;4.40;;;;;;;17.07;68.69;99244.94;5131429;27;38968;-82
2021/09/05 06:20:52;;;;;;;6.97;3.97;;;;;;;17.06;68.55;99245.91;5161567;27;41564;-82
2021/09/05 06:23:20;;;;;;;6.73;4.10;;;;;;;17.11;68.61;99243.69;5153430;27;42845;-84
2021/09/05 06:25:48;;;;;;;8.47;3.97;;;;;;;17.12;68.80;99247.22;5146762;27;41243;-80
2021/09/05 06:28:15;;;;;;;9.60;5.03;;;;;;;17.08;69.29;99245.78;5145689;27;39337;-79
2021/09/05 06:30:43;;;;;;;7.67;4.77;;;;;;;17.01;69.22;99252.63;5159741;27;42540;-82
2021/09/05 06:33:12;;;;;;;8.63;5.93;;;;;;;16.95;69.41;99250.44;5158043;27;42312;-80
2021/09/05 06:35:40;;;;;;;8.23;4.47;;;;;;;17.02;69.49;99257.84;5132911;27;42640;-81
2021/09/05 06:38:07;;;;;;;8.33;4.57;;;;;;;17.02;69.39;99257.00;5147595;27;39330;-81
2021/09/05 06:40:38;;;;;;;7.67;4.00;;;;;;;17.06;69.53;99259.28;5138703;27;42045;-83
2021/09/05 06:43:06;;;;;;;7.80;4.47;;;;;;;16.96;69.29;99236.94;5163228;27;42995;-82
2021/09/05 06:45:34;;;;;;;6.80;4.70;;;;;;;17.17;69.20;99261.09;5152663;27;42419;-84
2021/09/05 06:48:02;;;;;;;8.23;5.37;;;;;;;17.20;69.06;99252.78;5151158;27;39051;-84
2021/09/05 06:50:32;;;;;;;8.60;4.87;;;;;;;17.38;69.15;99261.97;5161751;27;42718;-80
2021/09/05 06:52:59;;;;;;;8.77;4.60;;;;;;;17.45;69.00;99265.81;5160108;27;42915;-80
2021/09/05 06:55:27;;;;;;;7.83;4.53;;;;;;;17.58;68.68;99271.84;5170362;27;42464;-81
2021/09/05 06:57:55;;;;;;;10.30;5.63;;;;;;;17.67;69.15;99272.09;5138452;27;39591;-80
2021/09/05 07:00:23;;;;;;;6.77;4.30;;;;;;;17.89;68.63;99280.84;5147498;27;40902;-80
2021/09/05 07:02:50;;;;;;;7.50;4.40;;;;;;;18.14;68.06;99274.19;5163689;27;43073;-80
2021/09/05 07:05:18;;;;;;;9.57;6.07;;;;;;;18.45;67.92;99276.88;5157197;27;43347;-80
2021/09/05 07:07:47;;;;;;;8.53;4.33;;;;;;;18.81;66.62;99272.78;5151786;27;39002;-81
2021/09/05 07:10:15;;;;;;;8.23;5.27;;;;;;;19.61;64.95;99283.34;5134081;27;43076;-79
2021/09/05 07:12:43;;;;;;;7.53;4.80;;;;;;;20.49;62.12;99291.09;5152052;27;43631;-79
2021/09/05 07:15:11;;;;;;;8.70;4.87;;;;;;;20.54;61.68;99293.31;5134586;27;41377;-82
2021/09/05 07:17:39;;;;;;;7.47;4.53;;;;;;;20.34;62.04;99292.53;5129808;27;41161;-80
2021/09/05 07:20:08;;;;;;;9.43;5.63;;;;;;;20.50;60.85;99303.56;5138933;27;40679;-82
2021/09/05 07:22:35;;;;;;;8.57;5.47;;;;;;;21.03;60.25;99300.97;5134808;27;42919;-80
2021/09/05 07:25:05;;;;;;;9.07;5.73;;;;;;;21.23;60.50;99292.81;5166737;27;42382;-79
2021/09/05 07:27:40;;;;;;;10.10;6.07;;;;;;;21.52;60.23;99282.66;5139013;27;39168;-81
2021/09/05 07:30:09;;;;;;;7.70;4.73;;;;;;;21.76;58.34;99309.81;5167678;27;42132;-82
2021/09/05 07:32:37;;;;;;;8.00;5.27;;;;;;;21.68;57.76;99315.16;5130646;27;41837;-81
2021/09/05 07:35:06;;;;;;;7.10;5.17;;;;;;;21.54;58.08;99315.69;5149711;27;41331;-80
2021/09/05 07:37:34;;;;;;;7.83;5.13;;;;;;;21.50;58.61;99308.94;5155961;27;40202;-80
2021/09/05 07:40:02;;;;;;;8.43;5.37;;;;;;;21.69;59.02;99306.06;5168621;27;42014;-81
2021/09/05 07:42:31;;;;;;;7.30;5.07;;;;;;;22.22;58.99;99305.16;5143078;27;43165;-82
2021/09/05 07:44:59;;;;;;;7.50;5.23;;;;;;;22.36;57.97;99311.81;5159625;27;42944;-82
2021/09/05 07:47:26;;;;;;;6.27;4.40;;;;;;;22.80;56.56;99312.56;5135002;27;40232;-81
2021/09/05 07:49:54;;;;;;;6.00;4.60;;;;;;;23.55;55.33;99333.25;5117435;27;40703;-81
2021/09/05 07:52:21;;;;;;;7.60;4.80;;;;;;;24.11;53.09;99333.44;5151683;27;43070;-80
2021/09/05 07:54:49;;;;;;;5.70;4.77;;;;;;;24.94;52.15;99334.81;5151075;27;41545;-81
2021/09/05 07:57:17;;;;;;;7.93;4.87;;;;;;;25.53;49.81;99342.47;5134510;27;38976;-82
2021/09/05 07:59:46;;;;;;;5.90;3.87;;;;;;;26.98;47.72;99351.19;5151450;27;41696;-82
2021/09/05 08:02:13;;;;;;;6.60;5.13;;;;;;;27.82;43.75;99365.16;5133648;27;42067;-82
2021/09/05 08:04:41;;;;;;;8.37;4.83;;;;;;;27.49;45.23;99371.06;5143516;27;42155;-81
2021/09/05 08:07:10;;;;;;;6.50;4.33;;;;;;;26.93;45.58;99352.78;5139049;27;39020;-81
2021/09/05 08:09:38;;;;;;;7.53;5.20;;;;;;;26.94;45.87;99346.34;5169319;27;41821;-82
2021/09/05 08:12:07;;;;;;;6.40;5.03;;;;;;;27.20;45.91;99371.13;5144158;27;42869;-80
2021/09/05 08:14:35;;;;;;;6.73;5.07;;;;;;;27.28;45.28;99364.75;5134722;27;41222;-83
2021/09/05 08:17:05;;;;;;;8.03;4.87;;;;;;;27.46;45.21;99371.44;5148039;27;40055;-81
2021/09/05 08:19:33;;;;;;;5.23;3.73;;;;;;;27.85;45.24;99362.91;5155220;27;42155;-82
2021/09/05 08:22:01;;;;;;;7.70;4.93;;;;;;;27.91;43.99;99380.38;5149983;27;43172;-81
2021/09/05 08:24:29;;;;;;;6.37;4.53;;;;;;;27.87;42.91;99373.59;5143486;27;41263;-83
2021/09/05 08:26:57;;;;;;;7.40;4.50;;;;;;;28.64;42.63;99375.56;5159508;27;39013;-82
2021/09/05 08:29:24;;;;;;;5.53;4.40;;;;;;;29.54;39.96;99400.88;5138460;27;41157;-83
2021/09/05 08:31:53;;;;;;;6.97;4.40;;;;;;;29.85;40.25;99392.13;5152053;27;42021;-84
2021/09/05 08:34:23;;;;;;;6.37;4.37;;;;;;;30.20;39.11;99379.16;5139649;27;41235;-82
2021/09/05 08:36:50;;;;;;;7.10;5.30;;;;;;;30.86;37.09;99409.25;5159608;27;40668;-81
2021/09/05 08:39:18;;;;;;;6.27;4.87;;;;;;;31.01;35.97;99409.84;5150402;27;41718;-83
2021/09/05 08:41:51;;;;;;;7.87;6.07;;;;;;;31.43;35.65;99415.84;5154189;27;42807;-82
2021/09/05 08:44:18;;;;;;;6.47;4.60;;;;;;;31.18;36.13;99401.19;5164486;27;42517;-83
2021/09/05 08:46:46;;;;;;;5.77;4.17;;;;;;;30.94;36.76;99406.28;5161849;27;40929;-82
2021/09/05 08:49:17;;;;;;;6.10;5.00;;;;;;;31.16;36.98;99397.84;5149242;27;40866;-82
2021/09/05 08:51:51;;;;;;;7.33;4.73;;;;;;;31.69;35.03;99423.97;5153217;27;42837;-82
2021/09/05 08:54:19;;;;;;;6.50;4.70;;;;;;;31.91;34.99;99420.88;5164410;27;43198;-83
2021/09/05 08:56:49;;;;;;;4.93;4.03;;;;;;;31.62;36.25;99403.97;5145030;27;39256;-83
2021/09/05 08:59:16;;;;;;;5.63;4.60;;;;;;;31.55;36.23;99414.09;5134785;27;40869;-83
2021/09/05 09:01:53;;;;;;;6.30;5.07;;;;;;;31.81;35.87;99393.97;5135545;27;41790;-84
2021/09/05 09:04:24;;;;;;;5.97;5.00;;;;;;;31.84;35.68;99399.03;5145915;27;41141;-84
2021/09/05 09:06:53;;;;;;;7.80;5.63;;;;;;;31.53;35.80;99399.78;5163382;27;39839;-82
2021/09/05 09:09:21;;;;;;;6.17;5.33;;;;;;;31.65;36.18;99409.00;5153560;27;40990;-82
2021/09/05 09:11:51;;;;;;;5.20;4.30;;;;;;;31.59;37.28;99390.72;5166938;27;44217;-82
2021/09/05 09:14:20;;;;;;;4.73;4.23;;;;;;;31.45;36.08;99407.41;5133491;27;42269;-83
2021/09/05 09:16:48;;;;;;;5.97;4.93;;;;;;;31.05;36.99;99386.44;5161858;27;40238;-83
2021/09/05 09:19:38;;;;;;;6.10;4.73;;;;;;;30.76;36.88;99405.25;5155681;27;41964;-85
2021/09/05 09:22:17;;;;;;;5.57;4.47;;;;;;;29.94;37.80;99355.38;5114985;27;41628;-84
2021/09/05 09:24:45;;;;;;;4.97;3.93;;;;;;;29.97;38.63;99390.50;5149620;27;41959;-83
2021/09/05 09:27:13;;;;;;;4.10;3.60;;;;;;;29.87;38.13;99389.19;5132275;27;40176;-82
2021/09/05 09:29:41;;;;;;;6.10;4.07;;;;;;;30.17;38.00;99381.47;5149580;27;41553;-82
2021/09/05 09:32:11;;;;;;;5.60;4.63;;;;;;;30.34;35.83;99410.06;5150012;27;43673;-84
2021/09/05 09:34:40;;;;;;;4.70;4.07;;;;;;;30.13;36.46;99408.38;5142691;27;42525;-83
2021/09/05 09:37:17;;;;;;;5.60;4.13;;;;;;;30.03;37.92;99388.00;5137280;27;39029;-83
2021/09/05 09:39:51;;;;;;;4.83;4.00;;;;;;;29.85;39.04;99378.47;5166052;27;41832;-83
2021/09/05 09:42:36;;;;;;;5.07;4.20;;;;;;;29.64;39.92;99384.94;5137365;27;42941;-82
2021/09/05 09:45:10;;;;;;;5.10;4.33;;;;;;;29.36;40.24;99353.31;5156938;27;42676;-83
2021/09/05 09:47:39;;;;;;;4.73;3.80;;;;;;;29.28;40.64;99362.53;5149011;27;40071;-83
2021/09/05 09:50:07;;;;;;;5.30;4.50;;;;;;;29.17;41.11;99365.84;5132194;27;41145;-84
2021/09/05 09:52:36;;;;;;;4.87;3.40;;;;;;;29.17;40.76;99382.19;5142286;27;42074;-83
2021/09/05 09:55:05;;;;;;;4.63;3.43;;;;;;;29.04;40.18;99372.06;5136667;27;42736;-84
2021/09/05 09:57:33;;;;;;;3.97;3.50;;;;;;;29.00;39.99;99380.84;5148105;27;40108;-83
2021/09/05 10:00:01;;;;;;;4.97;4.00;;;;;;;28.57;39.86;99334.59;5148056;27;41711;-83
2021/09/05 10:02:41;;;;;;;3.90;3.13;;;;;;;28.92;39.77;99382.69;5160011;27;41455;-84
2021/09/05 10:05:13;;;;;;;4.93;3.77;;;;;;;28.68;39.81;99353.16;5138452;27;42159;-83
2021/09/05 10:07:42;;;;;;;4.47;3.47;;;;;;;28.77;40.04;99383.81;5160030;27;39552;-83
2021/09/05 10:10:14;;;;;;;3.30;2.93;;;;;;;28.53;39.79;99352.41;5146578;27;40612;-85
2021/09/05 10:12:43;;;;;;;3.13;2.70;;;;;;;28.63;38.59;99380.16;5144087;27;42580;-85
2021/09/05 10:15:12;;;;;;;3.97;3.10;;;;;;;28.46;39.01;99357.81;5138019;27;41136;-82
2021/09/05 10:17:41;;;;;;;3.87;3.20;;;;;;;29.10;39.17;99348.56;5167059;27;39820;-85
2021/09/05 10:20:10;;;;;;;4.23;3.20;;;;;;;30.05;36.35;99373.06;5131399;27;41002;-86
2021/09/05 10:22:39;;;;;;;3.40;3.10;;;;;;;30.94;36.08;99392.59;5142553;27;41853;-84
2021/09/05 10:25:08;;;;;;;4.17;2.93;;;;;;;31.19;35.71;99361.81;5139240;27;41822;-85
2021/09/05 10:27:38;;;;;;;3.20;2.87;;;;;;;31.46;35.27;99393.50;5134192;27;38544;-85
2021/09/05 10:30:27;;;;;;;4.07;3.37;;;;;;;31.71;35.90;99396.38;5164487;27;41899;-84
2021/09/05 10:32:59;;;;;;;4.20;3.17;;;;;;;31.75;34.69;99394.88;5142540;27;20729;-83
2021/09/05 10:35:46;;;;;;;3.63;2.73;;;;;;;32.31;34.47;99400.41;5134289;27;41218;-83
2021/09/05 10:38:23;;;;;;;2.80;2.50;;;;;;;33.37;34.12;99393.94;5118610;27;39041;-82
2021/09/05 10:40:55;;;;;;;3.40;3.10;;;;;;;33.80;31.18;99408.38;5132285;27;42071;-83
2021/09/05 10:43:25;;;;;;;4.50;3.20;;;;;;;33.78;30.84;99418.75;5167367;27;42932;-85
2021/09/05 10:45:57;;;;;;;3.87;2.90;;;;;;;34.05;30.77;99390.88;5133431;27;42498;-84
2021/09/05 10:48:35;;;;;;;4.50;3.00;;;;;;;34.40;30.69;99399.25;5132744;27;38986;-88
2021/09/05 10:51:07;;;;;;;3.13;2.80;;;;;;;34.62;30.13;99405.03;5164855;27;42835;-83
2021/09/05 10:53:37;;;;;;;4.33;3.27;;;;;;;34.56;29.84;99413.16;5152854;27;43955;-86
2021/09/05 10:56:09;;;;;;;2.67;2.43;;;;;;;34.45;30.01;99410.38;5156551;27;43080;-84
2021/09/05 10:58:39;;;;;;;3.70;3.07;;;;;;;34.19;30.36;99398.69;5160499;27;40321;-87
2021/09/05 11:01:27;;;;;;;3.07;2.77;;;;;;;33.91;30.28;99408.66;5137932;27;40942;-85
2021/09/05 11:07:39;;;;;;;2.63;2.43;;;;;;;33.95;31.09;99407.13;5130785;27;41157;-84
2021/09/05 11:10:07;;;;;;;3.60;3.13;;;;;;;33.82;31.11;99358.69;5099111;27;39015;-85
2021/09/05 11:12:41;;;;;;;3.80;3.50;;;;;;;34.29;31.44;99389.06;5110879;27;41557;-84
2021/09/05 11:15:27;;;;;;;4.90;3.53;;;;;;;34.45;29.69;99386.47;5127982;27;42617;-85
2021/09/05 11:17:58;;;;;;;3.13;2.63;;;;;;;34.83;31.97;99382.44;5143604;27;41237;-86
2021/09/05 11:20:27;;;;;;;3.60;3.30;;;;;;;35.84;29.31;99395.66;5131593;27;38824;-87
2021/09/05 11:23:00;;;;;;;4.77;3.77;;;;;;;37.15;28.07;99404.47;5132473;27;41082;-88
2021/09/05 11:25:30;;;;;;;2.50;2.30;;;;;;;38.13;25.87;99429.50;5131130;27;41864;-84
2021/09/05 11:28:06;;;;;;;4.13;2.63;;;;;;;38.71;25.58;99399.03;5131798;27;41573;-85
2021/09/05 11:30:40;;;;;;;3.07;2.63;;;;;;;38.92;23.95;99429.66;5130626;27;40390;-87
2021/09/05 11:33:11;;;;;;;3.13;2.83;;;;;;;38.57;23.36;99403.38;5132324;27;41059;-85
2021/09/05 11:35:43;;;;;;;2.78;2.55;;;;;;;39.01;23.76;99431.69;5134743;27;41880;-85
2021/09/05 11:38:14;;;;;;;2.70;2.38;;;;;;;40.09;22.63;99445.78;5135099;27;42350;-85
2021/09/05 11:40:49;;;;;;;2.53;2.33;;;;;;;41.41;20.85;99459.69;5135714;27;40216;-85
2021/09/05 11:43:34;;;;;;;2.78;2.50;;;;;;;41.88;20.70;99444.47;5146378;27;40955;-84
2021/09/05 11:46:09;;;;;;;2.05;1.92;;;;;;;41.95;19.68;99444.97;5135644;27;42057;-83
2021/09/05 11:48:41;;;;;;;2.33;2.13;;;;;;;42.31;20.85;99424.16;5174338;27;42617;-84
2021/09/05 11:51:09;;;;;;;2.60;2.40;;;;;;;43.01;19.93;99432.25;5173742;27;40682;-83
2021/09/05 11:53:36;;;;;;;2.47;2.28;;;;;;;43.50;19.45;99445.09;5141517;27;42031;-84
2021/09/05 11:56:05;;;;;;;2.80;2.60;;;;;;;43.98;19.38;99440.34;5134675;27;42490;-83
2021/09/05 11:58:37;;;;;;;3.13;2.60;;;;;;;45.15;18.62;99444.84;5158675;27;41564;-83
2021/09/05 12:01:06;;;;;;;2.45;2.25;;;;;;;46.04;18.23;99430.41;5135624;27;38991;-82
2021/09/05 12:03:36;;;;;;;2.58;2.28;;;;;;;46.82;16.68;99445.91;5163861;27;43329;-83
2021/09/05 12:06:04;;;;;;;2.58;2.38;;;;;;;47.41;16.84;99436.19;5170360;27;42899;-84
2021/09/05 12:08:33;;;;;;;2.38;2.17;;;;;;;46.83;17.35;99441.97;5156209;27;41229;-84
2021/09/05 12:11:03;;;;;;;1.83;1.73;;;;;;;46.27;16.52;99446.13;5142070;27;40169;-85